Cascade, Colorado
Current Conditions -  °F | °C
As of 5:58 AM on Wednesday 26 Nov 2014 (Local Time) from KAFF Reporting Station
Overcast Overcast  
Wind Chill: 16°   Ceiling: 900
Heat Index: 25°   Visibility: 10mi
Dew Point: 21°   Wind: 8mph
Humidity: 84%   Direction: 60°ENE
Pressure: 30.18"   Gusts: NA
Location:  38.9°N, 104.97°W
Report Text: KAFF 261258Z AUTO 06007KT 10SM OVC009 M04/M06 A3018 RMK AO2 SLP242 T10401063
Loading
Personal Weather Stations






























Interactive Weather Map New forecast layout! Learn more

10-Day Weather Forecast

Advertisements
Track Severe Weather on mobile